createdAt,value
2022-11-21T00:04:43.377Z,104.53
2022-11-21T00:09:47.143Z,105.55
2022-11-21T00:14:52.393Z,104.18
2022-11-21T00:19:56.489Z,105.13
2022-11-21T00:25:00.648Z,107.43
2022-11-21T00:30:07.144Z,106.00
2022-11-21T00:35:10.969Z,107.60
2022-11-21T00:40:14.797Z,105.70
2022-11-21T00:45:24.254Z,103.78
2022-11-21T00:50:28.482Z,106.18
2022-11-21T00:55:32.233Z,107.00
2022-11-21T01:00:37.442Z,106.43
2022-11-21T01:05:41.222Z,105.67
2022-11-21T01:10:45.243Z,106.75
2022-11-21T01:15:50.420Z,100.75
2022-11-21T01:20:54.413Z,104.13
2022-11-21T01:26:02.799Z,107.28
2022-11-21T01:31:09.050Z,103.80
2022-11-21T01:36:14.221Z,105.80
2022-11-21T01:41:20.801Z,102.63
2022-11-21T01:46:26.372Z,110.70
2022-11-21T01:51:32.769Z,108.53
2022-11-21T01:56:41.578Z,111.93
2022-11-21T02:01:48.092Z,110.53
2022-11-21T02:06:52.296Z,119.88
2022-11-21T02:11:59.280Z,135.82
2022-11-21T02:17:07.409Z,137.52
2022-11-21T02:22:14.533Z,134.27
2022-11-21T02:27:20.357Z,136.80
2022-11-21T02:32:25.239Z,142.70
2022-11-21T02:37:29.073Z,135.27
2022-11-21T02:42:37.341Z,123.18
2022-11-21T02:47:41.801Z,121.50
2022-11-21T02:52:45.551Z,128.80
2022-11-21T02:57:50.743Z,122.57
2022-11-21T03:02:56.101Z,117.50
2022-11-21T03:07:59.920Z,106.97
2022-11-21T03:13:06.290Z,95.53
2022-11-21T03:18:10.137Z,92.97
2022-11-21T03:23:13.931Z,92.75
2022-11-21T03:28:19.088Z,92.57
2022-11-21T03:33:22.852Z,87.67
2022-11-21T03:38:26.914Z,94.75
2022-11-21T03:43:32.928Z,95.30
2022-11-21T03:53:40.298Z,95.53
2022-11-21T03:58:45.883Z,94.60
2022-11-21T04:03:49.870Z,91.82
2022-11-21T04:08:54.591Z,95.10
2022-11-21T04:13:59.756Z,92.90
2022-11-21T04:19:03.725Z,89.50
2022-11-21T04:24:08.361Z,84.35
2022-11-21T04:29:13.707Z,91.43
2022-11-21T04:34:17.666Z,89.95
2022-11-21T04:39:21.511Z,102.10
2022-11-21T04:44:26.996Z,99.90
2022-11-21T04:49:31.016Z,93.55
2022-11-21T04:54:34.797Z,95.43
2022-11-21T04:59:39.994Z,90.45
2022-11-21T05:04:43.710Z,87.50
2022-11-21T05:09:47.613Z,90.40
2022-11-21T05:14:52.857Z,85.70
2022-11-21T05:19:56.725Z,83.27
2022-11-21T05:25:00.545Z,92.65
2022-11-21T05:30:06.421Z,89.28
2022-11-21T05:35:10.703Z,86.95
2022-11-21T05:40:15.045Z,89.47
2022-11-21T05:45:20.467Z,92.43
2022-11-21T05:50:24.461Z,89.45
2022-11-21T05:55:28.421Z,92.82
2022-11-21T06:00:33.949Z,87.75
2022-11-21T06:05:37.852Z,91.28
2022-11-21T06:10:41.762Z,89.05
2022-11-21T06:15:46.972Z,90.03
2022-11-21T06:20:50.914Z,81.20
2022-11-21T06:25:58.279Z,78.68
2022-11-21T06:31:05.995Z,83.38
2022-11-21T06:36:11.965Z,81.18
2022-11-21T06:41:17.302Z,82.72
2022-11-21T06:46:22.477Z,81.23
2022-11-21T06:51:27.092Z,74.20
2022-11-21T06:56:32.265Z,73.82
2022-11-21T07:01:37.575Z,68.07
2022-11-21T07:06:41.512Z,70.43
2022-11-21T07:11:45.345Z,68.68
2022-11-21T07:16:50.491Z,62.60
2022-11-21T07:21:54.296Z,55.63
2022-11-21T07:26:58.063Z,56.92
2022-11-21T07:32:03.212Z,51.92
2022-11-21T07:37:07.794Z,47.27
2022-11-21T07:42:11.626Z,47.20
2022-11-21T07:47:16.767Z,43.30
2022-11-21T07:52:20.514Z,36.07
2022-11-21T07:57:24.587Z,39.28
2022-11-21T08:02:30.270Z,33.60
2022-11-21T08:07:34.198Z,35.33
2022-11-21T08:12:38.262Z,32.28
2022-11-21T08:17:44.395Z,23.23
2022-11-21T08:22:48.359Z,24.23
2022-11-21T08:27:52.168Z,22.55
2022-11-21T08:32:58.816Z,22.30
2022-11-21T08:38:03.504Z,21.42
2022-11-21T08:43:08.935Z,23.88
2022-11-21T08:48:14.127Z,10.88
2022-11-21T08:53:18.086Z,7.97
2022-11-21T08:58:21.938Z,16.38
2022-11-21T09:03:31.060Z,13.60
2022-11-21T09:08:35.361Z,12.43
2022-11-21T09:13:39.150Z,20.95
2022-11-21T09:18:44.409Z,10.88
2022-11-21T09:23:48.346Z,7.10
2022-11-21T09:28:52.153Z,6.75
2022-11-21T09:33:57.729Z,8.07
2022-11-21T09:39:01.559Z,7.43
2022-11-21T09:44:12.369Z,8.40
2022-11-21T09:49:18.202Z,10.88
2022-11-21T09:54:28.035Z,21.58
2022-11-21T09:59:35.860Z,24.15
2022-11-21T10:04:41.201Z,27.92
2022-11-21T10:10:05.825Z,19.97
2022-11-21T10:15:21.146Z,24.77
2022-11-21T10:20:37.515Z,27.60
2022-11-21T10:25:41.514Z,30.15
2022-11-21T10:30:46.177Z,28.60
2022-11-21T10:35:53.319Z,28.17
2022-11-21T10:41:03.680Z,31.73
2022-11-21T10:46:07.583Z,34.25
2022-11-21T10:51:26.445Z,33.38
2022-11-21T10:56:30.280Z,32.95
2022-11-21T11:01:35.799Z,30.63
2022-11-21T11:06:42.741Z,31.15
2022-11-21T11:11:46.528Z,37.13
2022-11-21T11:16:50.336Z,30.35
2022-11-21T11:21:56.336Z,36.10
2022-11-21T11:27:01.566Z,33.55
2022-11-21T11:32:20.636Z,35.53
2022-11-21T11:37:35.840Z,38.40
2022-11-21T11:43:24.225Z,36.78
2022-11-21T11:48:29.114Z,41.72
2022-11-21T11:53:38.650Z,39.20
2022-11-21T11:58:46.471Z,40.10
2022-11-21T12:03:57.969Z,41.50
2022-11-21T12:09:07.524Z,42.25
2022-11-21T12:14:40.516Z,44.05
2022-11-21T12:19:44.297Z,42.35
2022-11-21T12:24:50.069Z,47.50
2022-11-21T12:30:12.060Z,47.95
2022-11-21T12:35:38.248Z,48.80
2022-11-21T12:40:51.944Z,50.00
2022-11-21T12:46:00.974Z,51.20
2022-11-21T12:51:47.508Z,56.17
2022-11-21T12:56:56.670Z,55.08
2022-11-21T13:02:08.360Z,53.58
2022-11-21T13:07:12.745Z,54.35
2022-11-21T13:12:23.971Z,54.42
2022-11-21T13:17:40.927Z,49.53
2022-11-21T13:22:52.678Z,48.58
2022-11-21T13:28:24.231Z,47.60
2022-11-21T13:33:52.420Z,49.40
2022-11-21T13:39:33.052Z,48.17
2022-11-21T13:44:41.910Z,36.30
2022-11-21T13:49:51.762Z,27.50
2022-11-21T13:55:18.013Z,20.98
2022-11-21T14:00:38.262Z,17.45
2022-11-21T14:06:07.169Z,5.45
2022-11-21T14:11:31.741Z,6.35
2022-11-21T14:16:42.935Z,6.07
2022-11-21T14:21:47.378Z,3.10
2022-11-21T14:26:52.755Z,2.60
2022-11-21T14:31:58.129Z,1.80
2022-11-21T14:37:05.673Z,1.50
2022-11-21T14:42:14.064Z,1.52
2022-11-21T14:47:26.203Z,1.70
2022-11-21T14:52:31.873Z,1.80
2022-11-21T14:57:39.787Z,1.87
2022-11-21T15:02:45.108Z,1.90
2022-11-21T15:07:49.267Z,1.90
2022-11-21T15:12:57.645Z,1.70
2022-11-21T15:18:26.533Z,1.73
2022-11-21T15:23:30.559Z,1.75
2022-11-21T15:39:24.656Z,1.40
2022-11-21T15:44:28.847Z,1.75
2022-11-21T15:49:34.355Z,1.50
2022-11-21T15:54:38.514Z,1.50
2022-11-21T15:59:42.438Z,1.58
2022-11-21T16:04:47.781Z,1.90
2022-11-21T16:09:52.289Z,1.83
2022-11-21T16:14:56.369Z,1.60
2022-11-21T16:20:01.791Z,9.27
2022-11-21T16:25:06.750Z,1.90
2022-11-21T16:30:11.818Z,2.00
2022-11-21T16:35:17.288Z,1.17
2022-11-21T16:40:21.563Z,2.05
2022-11-21T16:45:25.609Z,2.70
2022-11-21T16:50:31.093Z,7.00
2022-11-21T16:55:35.304Z,3.10
2022-11-21T17:00:39.318Z,2.50
2022-11-21T17:05:44.721Z,2.58
2022-11-21T17:10:48.945Z,1.80
2022-11-21T17:15:53.196Z,2.30
2022-11-21T17:20:58.577Z,2.20
2022-11-21T17:26:03.945Z,2.33
2022-11-21T17:31:08.606Z,2.10
2022-11-21T17:36:15.752Z,2.58
2022-11-21T17:41:21.104Z,2.40
2022-11-21T17:46:26.301Z,2.67
2022-11-21T17:51:34.419Z,2.50
2022-11-21T17:56:45.773Z,2.75
2022-11-21T18:01:51.423Z,2.50
2022-11-21T18:06:56.764Z,3.03
2022-11-21T18:12:01.023Z,2.70
2022-11-21T18:17:05.104Z,2.80
2022-11-21T18:22:10.496Z,2.90
2022-11-21T18:27:14.462Z,2.23
2022-11-21T18:32:18.346Z,2.90
2022-11-21T18:37:23.646Z,3.00
2022-11-21T18:42:27.537Z,2.17
2022-11-21T18:47:31.663Z,2.95
2022-11-21T18:52:40.948Z,2.67
2022-11-21T18:57:47.569Z,2.90
2022-11-21T19:02:51.601Z,2.90
2022-11-21T19:07:57.000Z,2.85
2022-11-21T19:13:01.096Z,3.10
2022-11-21T19:18:05.438Z,3.53
2022-11-21T19:23:10.853Z,3.30
2022-11-21T19:28:14.973Z,2.83
2022-11-21T19:33:19.134Z,3.58
2022-11-21T19:38:24.668Z,3.45
2022-11-21T19:43:29.831Z,6.63
2022-11-21T19:48:34.102Z,3.70
2022-11-21T19:53:40.473Z,3.78
2022-11-21T19:58:44.850Z,4.07
2022-11-21T20:03:50.205Z,4.75
2022-11-21T20:08:56.863Z,3.70
2022-11-21T20:14:01.064Z,3.88
2022-11-21T20:19:07.102Z,4.10
2022-11-21T20:24:13.282Z,4.70
2022-11-21T20:29:17.561Z,4.50
2022-11-21T20:34:21.582Z,4.63
2022-11-21T20:39:31.775Z,4.30
2022-11-21T20:45:48.120Z,4.40
2022-11-21T20:50:02.272Z,4.90
2022-11-21T20:55:08.490Z,4.60
2022-11-21T21:00:14.017Z,5.03
2022-11-21T21:05:17.994Z,4.27
2022-11-21T21:10:25.435Z,5.10
2022-11-21T21:15:29.331Z,5.28
2022-11-21T21:20:44.259Z,4.93
2022-11-21T21:25:58.923Z,4.53
2022-11-21T21:31:07.362Z,5.10
2022-11-21T21:36:13.083Z,4.90
2022-11-21T21:41:18.458Z,4.93
2022-11-21T21:46:23.549Z,4.07
2022-11-21T21:51:28.516Z,5.00
2022-11-21T21:56:34.112Z,4.00
2022-11-21T22:01:38.399Z,5.28
2022-11-21T22:06:42.434Z,5.65
2022-11-21T22:11:47.806Z,5.30
2022-11-21T22:16:52.076Z,5.25
2022-11-21T22:21:56.017Z,5.13
2022-11-21T22:27:01.318Z,5.10
2022-11-21T22:32:06.839Z,3.40
2022-11-21T22:37:11.021Z,5.10
2022-11-21T22:42:16.295Z,5.32
2022-11-21T22:47:21.362Z,9.40
2022-11-21T22:52:25.457Z,3.83
2022-11-21T22:57:30.901Z,4.65
2022-11-21T23:02:35.579Z,4.88
2022-11-21T23:07:39.514Z,4.90
2022-11-21T23:12:44.794Z,4.93
2022-11-21T23:17:52.590Z,4.53
2022-11-21T23:22:58.074Z,5.07
2022-11-21T23:28:03.758Z,4.30
2022-11-21T23:33:07.915Z,4.35
2022-11-21T23:38:12.438Z,3.83
2022-11-21T23:43:18.665Z,3.55
2022-11-21T23:48:24.251Z,3.75
2022-11-21T23:53:28.372Z,3.63
2022-11-21T23:58:33.986Z,4.10
